KDUC

Halliburton Field Airport

Duncan, Oklahoma, USA
METAR KDUC 171635Z AUTO 21012G16KT 10SM CLR 32/23 A3003 RMK AO2 T03220228
Observed Flight Rules
Aug-17 @ 16:35 UTC (16 minutes ago) Visual Flight Rules
Wind Visibility Clouds
210° at 12 knots
 Gusting to 16 knots
10 miles
  • Clear skies
Temperatures Readings
Current 32°C / 90°F
Dewpoint 23°C / 73°F
Humidity 59%
Altimeter 30.03" Hg
Pressure 1017 hPa
Elevation 339
METAR KDUC 171635Z AUTO 21012G16KT 10SM CLR 32/23 A3003 RMK AO2 T03220228
Observed Flight Rules
Aug-17 @ 16:35 UTC
(16 minutes ago)
VFR
Wind Visibility
210° at 12 knots
 Gusting to 16 knots
10 miles
Clouds
  • Clear skies
Temperature Dewpoint
32°C / 90°F 23°C / 73°F
Humidity Altimeter Pressure
59% 30.03" Hg 1017 hPa